Terminal Aerodrome Forecast
Issued by NWS Jackson, KY

Home | Current Version | Previous Version | Text Only | Print | Product List | Glossary On
Versions: 1 2 3 4 5 6 7 8 9 10 11 12 13 14 15 16 17 18 19 20
000
FTUS43 KJKL 190500
TAFLOZ
TAF
KLOZ 190529Z 1906/2006 VRB03KT 3SM BR SCT002 BKN035 BKN040
     FM190700 00000KT 2SM BR BKN020
     FM190900 00000KT 1/2SM FG OVC007
     FM191400 27005KT P6SM BKN035
     FM191700 24005KT P6SM VCTS BKN050CB
     FM200100 00000KT 5SM BR SCT050=

USA.gov is the U.S. government's official web portal to all federal, state and local government web resources and services.